createdAt,value
2019-06-15T00:00:25.277Z,4.00
2019-06-15T00:01:25.303Z,0.00
2019-06-15T00:02:25.299Z,0.00
2019-06-15T00:03:25.314Z,0.00
2019-06-15T00:04:25.392Z,0.00
2019-06-15T00:05:25.349Z,0.00
2019-06-15T00:06:25.370Z,0.00
2019-06-15T00:07:25.445Z,0.00
2019-06-15T00:08:25.399Z,4.00
2019-06-15T00:09:25.442Z,4.00
2019-06-15T00:10:25.433Z,4.00
2019-06-15T00:11:25.561Z,4.00
2019-06-15T00:12:25.488Z,4.00
2019-06-15T00:13:25.657Z,4.00
2019-06-15T00:14:25.702Z,4.00
2019-06-15T00:15:25.516Z,4.00
2019-06-15T00:16:25.532Z,4.00
2019-06-15T00:17:25.572Z,4.00
2019-06-15T00:18:25.570Z,4.00
2019-06-15T00:19:25.630Z,4.00
2019-06-15T00:20:25.608Z,4.00
2019-06-15T00:21:25.622Z,4.00
2019-06-15T00:22:25.639Z,4.00
2019-06-15T00:23:25.668Z,4.00
2019-06-15T00:24:34.889Z,4.00
2019-06-15T00:25:25.683Z,4.00
2019-06-15T00:26:25.707Z,4.00
2019-06-15T00:27:25.723Z,4.00
2019-06-15T00:28:25.735Z,4.00
2019-06-15T00:29:25.905Z,4.00
2019-06-15T00:30:25.773Z,4.00
2019-06-15T00:31:25.871Z,4.00
2019-06-15T00:32:25.816Z,4.00
2019-06-15T00:33:25.814Z,4.00
2019-06-15T00:34:26.174Z,4.00
2019-06-15T00:35:25.855Z,4.00
2019-06-15T00:36:25.865Z,4.00
2019-06-15T00:37:25.889Z,4.00
2019-06-15T00:38:25.902Z,4.00
2019-06-15T00:39:25.915Z,4.00
2019-06-15T00:40:25.940Z,4.00
2019-06-15T00:41:25.959Z,4.00
2019-06-15T00:42:26.024Z,4.00
2019-06-15T00:43:26.043Z,0.00
2019-06-15T00:44:26.016Z,4.00
2019-06-15T00:45:26.011Z,4.00
2019-06-15T00:46:26.078Z,4.00
2019-06-15T00:47:26.045Z,4.00
2019-06-15T00:48:26.115Z,4.00
2019-06-15T00:49:26.077Z,0.00
2019-06-15T00:50:26.099Z,0.00
2019-06-15T00:51:26.139Z,0.00
2019-06-15T00:52:26.128Z,0.00
2019-06-15T00:53:26.154Z,4.00
2019-06-15T00:54:26.180Z,0.00
2019-06-15T00:55:26.180Z,0.00
2019-06-15T00:56:26.205Z,0.00
2019-06-15T00:57:26.214Z,0.00
2019-06-15T00:58:26.224Z,0.00
2019-06-15T00:59:26.246Z,0.00
2019-06-15T01:00:26.270Z,4.00
2019-06-15T01:01:26.289Z,0.00
2019-06-15T01:02:26.298Z,4.00
2019-06-15T01:03:26.314Z,0.00
2019-06-15T01:04:26.326Z,0.00
2019-06-15T01:05:26.360Z,0.00
2019-06-15T01:06:26.360Z,0.00
2019-06-15T01:07:26.391Z,0.00
2019-06-15T01:08:26.737Z,0.00
2019-06-15T01:09:26.404Z,0.00
2019-06-15T01:10:26.455Z,0.00
2019-06-15T01:11:26.438Z,0.00
2019-06-15T01:12:26.451Z,0.00
2019-06-15T01:13:26.486Z,4.00
2019-06-15T01:14:26.490Z,4.00
2019-06-15T01:15:26.519Z,4.00
2019-06-15T01:16:26.530Z,0.00
2019-06-15T01:17:26.872Z,0.00
2019-06-15T01:18:26.558Z,0.00
2019-06-15T01:19:26.614Z,0.00
2019-06-15T01:20:26.680Z,0.00
2019-06-15T01:21:26.612Z,0.00
2019-06-15T01:22:26.629Z,4.00
2019-06-15T01:23:26.634Z,0.00
2019-06-15T01:24:26.666Z,0.00
2019-06-15T01:25:26.670Z,4.00
2019-06-15T01:26:26.693Z,4.00
2019-06-15T01:27:26.698Z,4.00
2019-06-15T01:28:26.776Z,4.00
2019-06-15T01:29:26.737Z,4.00
2019-06-15T01:30:26.750Z,4.00
2019-06-15T01:31:26.777Z,4.00
2019-06-15T01:32:26.807Z,4.00
2019-06-15T01:33:26.817Z,4.00
2019-06-15T01:34:26.815Z,4.00
2019-06-15T01:35:26.852Z,4.00
2019-06-15T01:36:26.847Z,0.00
2019-06-15T01:37:26.865Z,4.00
2019-06-15T01:38:26.944Z,4.00
2019-06-15T01:39:26.897Z,4.00
2019-06-15T01:40:26.914Z,0.00
2019-06-15T01:41:26.933Z,0.00
2019-06-15T01:42:26.950Z,4.00
2019-06-15T01:43:26.963Z,4.00
2019-06-15T01:44:26.977Z,0.00
2019-06-15T01:45:26.997Z,4.00
2019-06-15T01:46:27.110Z,4.00
2019-06-15T01:47:27.089Z,4.00
2019-06-15T01:48:27.062Z,4.00
2019-06-15T01:49:27.067Z,4.00
2019-06-15T01:50:27.097Z,4.00
2019-06-15T01:51:27.123Z,4.00
2019-06-15T01:52:27.113Z,4.00
2019-06-15T01:53:27.150Z,4.00
2019-06-15T01:54:27.150Z,4.00
2019-06-15T01:55:27.159Z,4.00
2019-06-15T01:56:27.170Z,4.00
2019-06-15T01:57:27.190Z,4.00
2019-06-15T01:58:27.232Z,4.00
2019-06-15T01:59:27.234Z,4.00
2019-06-15T02:00:27.242Z,4.00
2019-06-15T02:01:27.440Z,4.00
2019-06-15T02:02:27.285Z,4.00
2019-06-15T02:03:27.384Z,4.00
2019-06-15T02:04:27.341Z,4.00
2019-06-15T02:05:27.343Z,4.00
2019-06-15T02:06:27.343Z,4.00
2019-06-15T02:07:27.354Z,4.00
2019-06-15T02:08:27.373Z,4.00
2019-06-15T02:09:27.604Z,4.00
2019-06-15T02:10:27.424Z,4.00
2019-06-15T02:11:27.433Z,4.00
2019-06-15T02:12:27.570Z,4.00
2019-06-15T02:13:27.507Z,4.00
2019-06-15T02:14:27.482Z,4.00
2019-06-15T02:15:27.486Z,4.00
2019-06-15T02:16:27.523Z,4.00
2019-06-15T02:17:27.519Z,4.00
2019-06-15T02:18:27.715Z,4.00
2019-06-15T02:19:27.667Z,4.00
2019-06-15T02:20:27.622Z,4.00
2019-06-15T02:21:27.583Z,4.00
2019-06-15T02:22:27.592Z,4.00
2019-06-15T02:23:27.647Z,4.00
2019-06-15T02:24:27.636Z,4.00
2019-06-15T02:25:35.705Z,4.00
2019-06-15T02:26:27.675Z,4.00
2019-06-15T02:27:27.691Z,4.00
2019-06-15T02:28:27.728Z,4.00
2019-06-15T02:29:27.712Z,4.00
2019-06-15T02:30:27.742Z,4.00
2019-06-15T02:31:27.768Z,4.00
2019-06-15T02:32:27.755Z,4.00
2019-06-15T02:33:27.884Z,4.00
2019-06-15T02:34:27.790Z,4.00
2019-06-15T02:35:27.802Z,4.00
2019-06-15T02:36:27.853Z,4.00
2019-06-15T02:37:27.844Z,4.00
2019-06-15T02:38:27.868Z,0.00
2019-06-15T02:39:27.868Z,4.00
2019-06-15T02:40:27.895Z,4.00
2019-06-15T02:41:27.913Z,4.00
2019-06-15T02:42:27.930Z,4.00
2019-06-15T02:43:27.932Z,4.00
2019-06-15T02:44:27.961Z,4.00
2019-06-15T02:45:27.983Z,8.00
2019-06-15T02:46:28.011Z,8.00
2019-06-15T02:47:28.001Z,4.00
2019-06-15T02:48:28.026Z,4.00
2019-06-15T02:49:28.036Z,8.00
2019-06-15T02:50:28.054Z,8.00
2019-06-15T02:51:28.061Z,8.00
2019-06-15T02:52:28.080Z,4.00
2019-06-15T02:53:28.097Z,8.00
2019-06-15T02:54:28.116Z,8.00
2019-06-15T02:55:28.134Z,8.00
2019-06-15T02:56:28.162Z,12.00
2019-06-15T02:57:28.451Z,8.00
2019-06-15T02:58:29.521Z,12.00
2019-06-15T02:59:28.683Z,12.00
2019-06-15T03:00:29.184Z,12.00
2019-06-15T03:01:28.673Z,12.00
2019-06-15T03:02:28.251Z,12.00
2019-06-15T03:03:28.298Z,12.00
2019-06-15T03:04:28.279Z,12.00
2019-06-15T03:05:28.295Z,12.00
2019-06-15T03:06:28.374Z,16.00
2019-06-15T03:07:28.340Z,16.00
2019-06-15T03:08:28.385Z,16.00
2019-06-15T03:09:28.355Z,20.00
2019-06-15T03:10:28.396Z,20.00
2019-06-15T03:11:28.402Z,20.00
2019-06-15T03:12:28.447Z,16.00
2019-06-15T03:13:28.420Z,16.00
2019-06-15T03:14:28.451Z,16.00
2019-06-15T03:15:28.447Z,20.00
2019-06-15T03:16:28.469Z,16.00
2019-06-15T03:17:28.529Z,16.00
2019-06-15T03:18:28.522Z,20.00
2019-06-15T03:19:28.528Z,16.00
2019-06-15T03:20:28.541Z,20.00
2019-06-15T03:21:28.550Z,24.00
2019-06-15T03:22:28.569Z,28.00
2019-06-15T03:23:28.581Z,32.00
2019-06-15T03:24:28.614Z,36.00
2019-06-15T03:25:28.626Z,36.00
2019-06-15T03:26:28.647Z,40.00
2019-06-15T03:27:28.653Z,36.00
2019-06-15T03:28:28.712Z,36.00
2019-06-15T03:29:28.680Z,36.00
2019-06-15T03:30:28.751Z,36.00
2019-06-15T03:31:28.741Z,44.00
2019-06-15T03:32:28.767Z,48.00
2019-06-15T03:33:28.753Z,56.00
2019-06-15T03:34:28.810Z,64.00
2019-06-15T03:35:28.913Z,76.00
2019-06-15T03:36:29.084Z,88.00
2019-06-15T03:37:28.816Z,92.00
2019-06-15T03:38:28.836Z,92.00
2019-06-15T03:39:28.866Z,92.00
2019-06-15T03:40:28.861Z,92.00
2019-06-15T03:41:28.877Z,92.00
2019-06-15T03:42:28.890Z,92.00
2019-06-15T03:43:28.912Z,88.00
2019-06-15T03:44:28.937Z,84.00
2019-06-15T03:45:28.979Z,84.00
2019-06-15T03:46:28.977Z,88.00
2019-06-15T03:47:28.967Z,92.00
2019-06-15T03:48:29.014Z,88.00
2019-06-15T03:50:29.234Z,84.00
2019-06-15T03:51:29.067Z,80.00
2019-06-15T03:52:29.189Z,84.00
2019-06-15T03:54:29.078Z,104.00
2019-06-15T03:55:29.106Z,116.00
2019-06-15T03:56:29.157Z,128.00
2019-06-15T03:57:29.155Z,148.00
2019-06-15T03:58:29.145Z,168.00
2019-06-15T03:59:29.170Z,188.00
2019-06-15T04:00:29.234Z,220.00
2019-06-15T04:01:29.201Z,256.00
2019-06-15T04:02:29.244Z,304.00
2019-06-15T04:04:29.271Z,408.00
2019-06-15T04:05:29.273Z,444.00
2019-06-15T04:06:29.277Z,468.00
2019-06-15T04:07:29.342Z,492.00
2019-06-15T04:08:30.086Z,516.00
2019-06-15T04:09:29.324Z,540.00
2019-06-15T04:10:29.337Z,564.00
2019-06-15T04:11:29.712Z,592.00
2019-06-15T04:12:29.491Z,616.00
2019-06-15T04:13:29.399Z,628.00
2019-06-15T04:14:29.421Z,636.00
2019-06-15T04:15:29.419Z,640.00
2019-06-15T04:16:29.448Z,660.00
2019-06-15T04:17:29.524Z,676.00
2019-06-15T04:18:29.548Z,696.00
2019-06-15T04:19:29.489Z,716.00
2019-06-15T04:20:29.801Z,744.00
2019-06-15T04:21:29.534Z,768.00
2019-06-15T04:22:29.541Z,792.00
2019-06-15T04:23:29.563Z,808.00
2019-06-15T04:24:29.568Z,816.00
2019-06-15T04:25:29.605Z,824.00
2019-06-15T04:26:36.063Z,844.00
2019-06-15T04:27:29.641Z,864.00
2019-06-15T04:28:29.646Z,864.00
2019-06-15T04:29:29.661Z,860.00
2019-06-15T04:30:29.676Z,864.00
2019-06-15T04:31:29.675Z,872.00
2019-06-15T04:32:29.694Z,876.00
2019-06-15T04:33:29.714Z,872.00
2019-06-15T04:34:29.731Z,872.00
2019-06-15T04:35:29.737Z,876.00
2019-06-15T04:36:29.765Z,884.00
2019-06-15T04:37:29.790Z,896.00
2019-06-15T04:38:29.796Z,912.00
2019-06-15T04:39:29.849Z,928.00
2019-06-15T04:40:29.845Z,944.00
2019-06-15T04:41:29.900Z,964.00
2019-06-15T04:42:29.870Z,984.00
2019-06-15T04:43:29.880Z,1012.00
2019-06-15T04:44:29.895Z,1048.00
2019-06-15T04:45:29.903Z,1076.00
2019-06-15T04:46:32.091Z,1108.00
2019-06-15T04:47:29.934Z,1140.00
2019-06-15T04:48:29.952Z,1176.00
2019-06-15T04:49:29.959Z,1212.00
2019-06-15T04:50:29.978Z,1256.00
2019-06-15T04:51:29.997Z,1300.00
2019-06-15T04:52:30.016Z,1316.00
2019-06-15T04:53:30.026Z,1340.00
2019-06-15T04:54:30.040Z,1368.00
2019-06-15T04:55:30.057Z,1396.00
2019-06-15T04:56:30.082Z,1420.00
2019-06-15T04:57:30.088Z,1444.00
2019-06-15T04:58:30.103Z,1472.00
2019-06-15T04:59:30.118Z,1472.00
2019-06-15T05:00:30.133Z,1472.00
2019-06-15T05:01:30.164Z,1492.00
2019-06-15T05:02:30.173Z,1508.00
2019-06-15T05:03:30.219Z,1424.00
2019-06-15T05:04:30.202Z,1440.00
2019-06-15T05:05:30.215Z,1452.00
2019-06-15T05:06:30.242Z,1404.00
2019-06-15T05:07:30.265Z,1432.00
2019-06-15T05:08:30.265Z,1456.00
2019-06-15T05:09:30.284Z,1444.00
2019-06-15T05:10:30.300Z,1444.00
2019-06-15T05:11:30.315Z,1528.00
2019-06-15T05:12:30.333Z,1612.00
2019-06-15T05:13:30.449Z,1616.00
2019-06-15T05:14:30.436Z,1620.00
2019-06-15T05:15:30.381Z,1616.00
2019-06-15T05:16:30.397Z,1580.00
2019-06-15T05:17:30.528Z,1544.00
2019-06-15T05:18:30.521Z,1460.00
2019-06-15T05:19:30.442Z,1464.00
2019-06-15T05:20:30.459Z,1616.00
2019-06-15T05:21:30.622Z,1588.00
2019-06-15T05:22:30.524Z,1628.00
2019-06-15T05:23:30.859Z,1632.00
2019-06-15T05:24:30.528Z,1756.00
2019-06-15T05:25:30.544Z,1716.00
2019-06-15T05:26:30.580Z,1588.00
2019-06-15T05:27:30.607Z,1452.00
2019-06-15T05:28:30.601Z,1412.00
2019-06-15T05:29:30.627Z,1192.00
2019-06-15T05:30:30.624Z,880.00
2019-06-15T05:31:30.702Z,756.00
2019-06-15T05:34:30.690Z,748.00
2019-06-15T05:35:30.721Z,808.00
2019-06-15T05:36:30.724Z,868.00
2019-06-15T05:37:30.747Z,944.00
2019-06-15T05:38:30.777Z,1028.00
2019-06-15T05:39:30.788Z,1184.00
2019-06-15T05:40:30.789Z,1344.00
2019-06-15T05:41:30.818Z,1424.00
2019-06-15T05:42:31.283Z,1488.00
2019-06-15T05:43:30.982Z,1536.00
2019-06-15T05:46:31.013Z,1648.00
2019-06-15T05:47:31.216Z,1708.00
2019-06-15T05:48:31.047Z,1956.00
2019-06-15T05:49:30.935Z,1864.00
2019-06-15T05:50:30.954Z,1760.00
2019-06-15T05:51:30.963Z,1720.00
2019-06-15T05:52:30.979Z,1652.00
2019-06-15T05:53:31.000Z,1584.00
2019-06-15T05:54:31.024Z,1580.00
2019-06-15T05:55:31.027Z,1604.00
2019-06-15T05:56:33.478Z,1648.00
2019-06-15T05:57:31.078Z,1688.00
2019-06-15T05:59:31.101Z,1628.00
2019-06-15T06:00:31.142Z,1584.00
2019-06-15T06:01:31.136Z,1532.00
2019-06-15T06:02:31.150Z,1452.00
2019-06-15T06:03:31.160Z,1396.00
2019-06-15T06:04:31.173Z,1364.00
2019-06-15T06:05:31.197Z,1256.00
2019-06-15T06:06:31.216Z,1196.00
2019-06-15T06:07:31.220Z,1180.00
2019-06-15T06:08:31.239Z,1228.00
2019-06-15T06:09:31.270Z,1264.00
2019-06-15T06:10:31.271Z,1324.00
2019-06-15T06:11:31.292Z,1484.00
2019-06-15T06:12:31.300Z,1620.00
2019-06-15T06:13:31.319Z,1584.00
2019-06-15T06:14:31.343Z,1716.00
2019-06-15T06:15:31.351Z,1712.00
2019-06-15T06:16:31.402Z,1724.00
2019-06-15T06:17:31.387Z,1708.00
2019-06-15T06:18:31.397Z,1672.00
2019-06-15T06:19:31.491Z,1668.00
2019-06-15T06:20:31.531Z,1680.00
2019-06-15T06:21:31.649Z,1596.00
2019-06-15T06:22:31.467Z,1376.00
2019-06-15T06:23:31.479Z,1232.00
2019-06-15T06:24:31.496Z,1044.00
2019-06-15T06:25:31.627Z,920.00
2019-06-15T06:26:31.530Z,828.00
2019-06-15T06:27:36.427Z,784.00
2019-06-15T06:28:31.583Z,708.00
2019-06-15T06:29:31.608Z,624.00
2019-06-15T06:30:31.592Z,588.00
2019-06-15T06:31:31.622Z,612.00
2019-06-15T06:32:31.622Z,656.00
2019-06-15T06:33:31.931Z,744.00
2019-06-15T06:35:31.672Z,976.00
2019-06-15T06:36:31.694Z,1176.00
2019-06-15T06:37:31.713Z,1328.00
2019-06-15T06:38:31.741Z,1500.00
2019-06-15T06:39:31.736Z,1676.00
2019-06-15T06:40:31.753Z,1776.00
2019-06-15T06:41:31.776Z,1836.00
2019-06-15T06:42:32.988Z,1924.00
2019-06-15T06:43:31.898Z,1964.00
2019-06-15T06:45:31.831Z,2292.00
2019-06-15T06:46:31.857Z,2324.00
2019-06-15T06:47:31.864Z,2340.00
2019-06-15T06:48:31.901Z,2248.00
2019-06-15T06:49:31.897Z,2084.00
2019-06-15T06:50:31.913Z,2276.00
2019-06-15T06:51:31.987Z,2416.00
2019-06-15T06:52:31.948Z,2904.00
2019-06-15T06:53:31.966Z,3192.00
2019-06-15T06:54:32.101Z,3344.00
2019-06-15T06:56:32.009Z,3456.00
2019-06-15T06:57:32.416Z,3488.00
2019-06-15T06:58:32.069Z,3556.00
2019-06-15T06:59:32.053Z,3548.00
2019-06-15T07:00:32.071Z,3320.00
2019-06-15T07:01:32.091Z,3456.00
2019-06-15T07:02:32.560Z,3780.00
2019-06-15T07:03:32.372Z,3896.00
2019-06-15T07:04:32.558Z,3688.00
2019-06-15T07:05:32.167Z,3412.00
2019-06-15T07:06:32.176Z,3088.00
2019-06-15T07:07:32.185Z,2864.00
2019-06-15T07:08:32.224Z,2908.00
2019-06-15T07:09:32.226Z,3044.00
2019-06-15T07:10:32.234Z,3028.00
2019-06-15T07:11:32.272Z,3096.00
2019-06-15T07:12:32.270Z,3256.00
2019-06-15T07:13:32.287Z,3436.00
2019-06-15T07:14:32.302Z,3672.00
2019-06-15T07:15:32.319Z,3672.00
2019-06-15T07:16:32.335Z,3696.00
2019-06-15T07:17:32.358Z,3796.00
2019-06-15T07:18:32.367Z,3832.00
2019-06-15T07:19:33.634Z,3920.00
2019-06-15T07:20:32.407Z,3948.00
2019-06-15T07:21:32.477Z,3956.00
2019-06-15T07:22:32.774Z,3704.00
2019-06-15T07:23:32.445Z,3404.00
2019-06-15T07:24:32.461Z,3312.00
2019-06-15T07:25:32.481Z,3360.00
2019-06-15T07:26:32.498Z,3480.00
2019-06-15T07:27:33.361Z,3568.00
2019-06-15T07:28:32.673Z,3580.00
2019-06-15T07:29:32.556Z,3432.00
2019-06-15T07:30:32.744Z,3264.00
2019-06-15T07:31:32.588Z,3140.00
2019-06-15T07:32:32.609Z,3096.00
2019-06-15T07:33:32.649Z,3080.00
2019-06-15T07:34:32.633Z,3052.00
2019-06-15T07:35:33.145Z,2800.00
2019-06-15T07:36:32.703Z,2364.00
2019-06-15T07:37:32.682Z,1952.00
2019-06-15T07:38:32.843Z,1680.00
2019-06-15T07:39:32.712Z,1520.00
2019-06-15T07:40:32.734Z,1416.00
2019-06-15T07:41:32.749Z,1336.00
2019-06-15T07:42:32.764Z,1312.00
2019-06-15T07:43:32.776Z,1348.00
2019-06-15T07:44:32.795Z,1436.00
2019-06-15T07:45:32.835Z,1520.00
2019-06-15T07:46:33.541Z,1584.00
2019-06-15T07:47:34.218Z,1584.00
2019-06-15T07:48:32.901Z,1516.00
2019-06-15T07:49:32.876Z,1404.00
2019-06-15T07:50:32.895Z,1312.00
2019-06-15T07:51:32.917Z,1252.00
2019-06-15T07:52:32.965Z,1200.00
2019-06-15T07:53:32.954Z,1164.00
2019-06-15T07:54:36.084Z,1228.00
2019-06-15T07:55:33.019Z,1248.00
2019-06-15T07:56:33.036Z,1224.00
2019-06-15T07:57:34.178Z,1188.00
2019-06-15T07:58:34.503Z,1128.00
2019-06-15T07:59:33.053Z,1196.00
2019-06-15T08:00:33.064Z,1388.00
2019-06-15T08:01:33.071Z,1256.00
2019-06-15T08:02:33.164Z,1060.00
2019-06-15T08:03:33.271Z,1044.00
2019-06-15T08:04:33.132Z,1028.00
2019-06-15T08:05:33.135Z,860.00
2019-06-15T08:06:33.155Z,764.00
2019-06-15T08:07:33.174Z,892.00
2019-06-15T08:08:33.253Z,1104.00
2019-06-15T08:09:33.212Z,1112.00
2019-06-15T08:10:33.213Z,1016.00
2019-06-15T08:11:33.240Z,748.00
2019-06-15T08:12:33.246Z,640.00
2019-06-15T08:13:33.260Z,836.00
2019-06-15T08:14:33.280Z,1052.00
2019-06-15T08:15:33.293Z,1128.00
2019-06-15T08:16:33.315Z,1136.00
2019-06-15T08:17:33.325Z,1100.00
2019-06-15T08:18:33.349Z,1020.00
2019-06-15T08:19:33.385Z,932.00
2019-06-15T08:20:33.394Z,844.00
2019-06-15T08:21:33.392Z,772.00
2019-06-15T08:22:33.401Z,716.00
2019-06-15T08:23:35.974Z,696.00
2019-06-15T08:24:33.446Z,720.00
2019-06-15T08:25:33.450Z,744.00
2019-06-15T08:26:33.474Z,784.00
2019-06-15T08:27:33.500Z,808.00
2019-06-15T08:28:40.215Z,816.00
2019-06-15T08:29:34.244Z,844.00
2019-06-15T08:30:33.588Z,896.00
2019-06-15T08:31:33.557Z,960.00
2019-06-15T08:32:33.575Z,1032.00
2019-06-15T08:33:33.592Z,1084.00
2019-06-15T08:34:33.595Z,1104.00
2019-06-15T08:35:33.914Z,1120.00
2019-06-15T08:36:33.713Z,1116.00
2019-06-15T08:37:33.640Z,1120.00
2019-06-15T08:38:33.663Z,1156.00
2019-06-15T08:39:33.677Z,1196.00
2019-06-15T08:41:33.701Z,1336.00
2019-06-15T08:42:33.717Z,1388.00
2019-06-15T08:43:33.900Z,1436.00
2019-06-15T08:44:33.765Z,1512.00
2019-06-15T08:46:33.814Z,1672.00
2019-06-15T08:47:33.799Z,1724.00
2019-06-15T08:48:33.813Z,1776.00
2019-06-15T08:49:33.905Z,1736.00
2019-06-15T08:50:33.850Z,1716.00
2019-06-15T08:51:33.873Z,1652.00
2019-06-15T08:52:33.882Z,1556.00
2019-06-15T08:53:33.899Z,1432.00
2019-06-15T08:54:33.913Z,1320.00
2019-06-15T08:55:34.541Z,1284.00
2019-06-15T08:56:34.301Z,1200.00
2019-06-15T08:57:33.967Z,1200.00
2019-06-15T08:58:33.978Z,1300.00
2019-06-15T08:59:33.990Z,1260.00
2019-06-15T09:00:34.203Z,1272.00
2019-06-15T09:01:34.027Z,1272.00
2019-06-15T09:02:34.041Z,1196.00
2019-06-15T09:03:34.046Z,1264.00
2019-06-15T09:04:34.067Z,1184.00
2019-06-15T09:05:34.088Z,1152.00
2019-06-15T09:06:34.124Z,1204.00
2019-06-15T09:07:34.182Z,1212.00
2019-06-15T09:08:34.132Z,1240.00
2019-06-15T09:09:34.153Z,1252.00
2019-06-15T09:10:34.765Z,1184.00
2019-06-15T09:11:36.622Z,1220.00
2019-06-15T09:12:34.228Z,1444.00
2019-06-15T09:13:34.212Z,1608.00
2019-06-15T09:14:34.628Z,1620.00
2019-06-15T09:15:34.241Z,1576.00
2019-06-15T09:16:34.259Z,1524.00
2019-06-15T09:18:34.953Z,1384.00
2019-06-15T09:19:34.350Z,1440.00
2019-06-15T09:20:34.338Z,1604.00
2019-06-15T09:21:34.345Z,1736.00
2019-06-15T09:22:34.358Z,1752.00
2019-06-15T09:23:34.379Z,1604.00
2019-06-15T09:24:34.384Z,1848.00
2019-06-15T09:25:36.773Z,2384.00
2019-06-15T09:26:34.427Z,2788.00
2019-06-15T09:27:34.438Z,2960.00
2019-06-15T09:28:34.477Z,3056.00
2019-06-15T09:29:34.478Z,3044.00
2019-06-15T09:30:34.483Z,2996.00
2019-06-15T09:31:34.500Z,3096.00
2019-06-15T09:32:34.513Z,3100.00
2019-06-15T09:33:34.528Z,3484.00
2019-06-15T09:34:34.553Z,4328.00
2019-06-15T09:35:34.561Z,4800.00
2019-06-15T09:37:34.662Z,4088.00
2019-06-15T09:38:34.645Z,4128.00
2019-06-15T09:39:34.629Z,4996.00
2019-06-15T09:40:34.647Z,5688.00
2019-06-15T09:41:34.663Z,6196.00
2019-06-15T09:42:34.678Z,4592.00
2019-06-15T09:43:34.688Z,3960.00
2019-06-15T09:44:34.706Z,3728.00
2019-06-15T09:45:34.724Z,3612.00
2019-06-15T09:46:34.750Z,3456.00
2019-06-15T09:47:34.755Z,2940.00
2019-06-15T09:48:34.768Z,2588.00
2019-06-15T09:49:34.795Z,2804.00
2019-06-15T09:50:34.802Z,2728.00
2019-06-15T09:51:34.829Z,2668.00
2019-06-15T09:52:34.835Z,2640.00
2019-06-15T09:53:34.856Z,2956.00
2019-06-15T09:54:34.880Z,3124.00
2019-06-15T09:55:34.886Z,3644.00
2019-06-15T09:56:35.892Z,4000.00
2019-06-15T09:57:35.285Z,3624.00
2019-06-15T09:58:36.146Z,2928.00
2019-06-15T09:59:38.290Z,2876.00
2019-06-15T10:00:34.974Z,2984.00
2019-06-15T10:01:34.987Z,3032.00
2019-06-15T10:02:35.010Z,2928.00
2019-06-15T10:03:35.019Z,2696.00
2019-06-15T10:04:35.034Z,2272.00
2019-06-15T10:05:35.058Z,2048.00
2019-06-15T10:06:35.087Z,2072.00
2019-06-15T10:07:35.088Z,1964.00
2019-06-15T10:08:35.113Z,1768.00
2019-06-15T10:09:35.124Z,1992.00
2019-06-15T10:10:35.183Z,2888.00
2019-06-15T10:11:35.215Z,3708.00
2019-06-15T10:12:35.210Z,3748.00
2019-06-15T10:13:35.905Z,3428.00
2019-06-15T10:14:35.203Z,3236.00
2019-06-15T10:15:35.226Z,3392.00
2019-06-15T10:16:35.238Z,3488.00
2019-06-15T10:17:35.252Z,3808.00
2019-06-15T10:18:38.646Z,4192.00
2019-06-15T10:20:37.281Z,4612.00
2019-06-15T10:21:37.780Z,4936.00
2019-06-15T10:24:35.707Z,6264.00
2019-06-15T10:25:35.800Z,6012.00
2019-06-15T10:26:36.773Z,5964.00
2019-06-15T10:27:35.424Z,7136.00
2019-06-15T10:28:35.436Z,5584.00
2019-06-15T10:29:41.853Z,5148.00
2019-06-15T10:30:35.486Z,5036.00
2019-06-15T10:31:35.494Z,5096.00
2019-06-15T10:32:35.515Z,4936.00
2019-06-15T10:33:35.529Z,4536.00
2019-06-15T10:34:35.538Z,4208.00
2019-06-15T10:35:35.996Z,4176.00
2019-06-15T10:36:35.579Z,3892.00
2019-06-15T10:37:35.613Z,2996.00
2019-06-15T10:38:35.923Z,2188.00
2019-06-15T10:40:35.685Z,1140.00
2019-06-15T10:41:35.716Z,952.00
2019-06-15T10:42:35.685Z,940.00
2019-06-15T10:43:35.703Z,1040.00
2019-06-15T10:44:35.815Z,1104.00
2019-06-15T10:45:36.263Z,1084.00
2019-06-15T10:46:35.828Z,1036.00
2019-06-15T10:48:35.782Z,828.00
2019-06-15T10:49:35.826Z,780.00
2019-06-15T10:50:36.312Z,784.00
2019-06-15T10:51:37.902Z,824.00
2019-06-15T10:52:36.236Z,888.00
2019-06-15T10:53:35.929Z,1012.00
2019-06-15T10:54:35.881Z,1068.00
2019-06-15T10:55:35.908Z,916.00
2019-06-15T10:56:35.939Z,688.00
2019-06-15T10:57:35.934Z,636.00
2019-06-15T10:58:36.008Z,732.00
2019-06-15T10:59:35.969Z,852.00
2019-06-15T11:00:36.029Z,888.00
2019-06-15T11:01:36.015Z,856.00
2019-06-15T11:02:36.029Z,732.00
2019-06-15T11:03:36.038Z,656.00
2019-06-15T11:04:36.057Z,700.00
2019-06-15T11:05:36.064Z,684.00
2019-06-15T11:06:36.087Z,676.00
2019-06-15T11:07:36.109Z,640.00
2019-06-15T11:08:36.156Z,632.00
2019-06-15T11:09:36.138Z,596.00
2019-06-15T11:10:37.145Z,584.00
2019-06-15T11:11:36.175Z,724.00
2019-06-15T11:12:45.771Z,1096.00
2019-06-15T11:13:36.249Z,1544.00
2019-06-15T11:14:36.259Z,2064.00
2019-06-15T11:15:36.254Z,2480.00
2019-06-15T11:16:36.565Z,2520.00
2019-06-15T11:17:37.422Z,2508.00
2019-06-15T11:18:37.958Z,2264.00
2019-06-15T11:19:36.346Z,2728.00
2019-06-15T11:20:36.846Z,3144.00
2019-06-15T11:21:36.349Z,3260.00
2019-06-15T11:22:36.384Z,3256.00
2019-06-15T11:23:37.502Z,3568.00
2019-06-15T11:24:36.378Z,3832.00
2019-06-15T11:25:36.399Z,3596.00
2019-06-15T11:26:36.425Z,3396.00
2019-06-15T11:27:36.443Z,3200.00
2019-06-15T11:28:36.473Z,3100.00
2019-06-15T11:29:36.456Z,3028.00
2019-06-15T11:30:36.474Z,3012.00
2019-06-15T11:31:36.540Z,3004.00
2019-06-15T11:32:36.517Z,3080.00
2019-06-15T11:33:36.721Z,3176.00
2019-06-15T11:34:36.581Z,3284.00
2019-06-15T11:35:36.570Z,3504.00
2019-06-15T11:36:36.578Z,3928.00
2019-06-15T11:37:36.588Z,4320.00
2019-06-15T11:38:36.611Z,4508.00
2019-06-15T11:39:36.637Z,4948.00
2019-06-15T11:40:36.646Z,5532.00
2019-06-15T11:41:36.669Z,5336.00
2019-06-15T11:42:36.670Z,5988.00
2019-06-15T11:43:36.690Z,7384.00
2019-06-15T11:44:36.705Z,7204.00
2019-06-15T11:45:36.750Z,7968.00
2019-06-15T11:46:37.322Z,6892.00
2019-06-15T11:47:36.755Z,4388.00
2019-06-15T11:48:36.781Z,3992.00
2019-06-15T11:49:36.802Z,4260.00
2019-06-15T11:50:36.820Z,5404.00
2019-06-15T11:51:36.830Z,5232.00
2019-06-15T11:52:36.877Z,5244.00
2019-06-15T11:53:36.853Z,6072.00
2019-06-15T11:54:36.875Z,6448.00
2019-06-15T11:55:39.745Z,5096.00
2019-06-15T11:56:36.913Z,6340.00
2019-06-15T11:57:36.928Z,4580.00
2019-06-15T11:58:36.947Z,6444.00
2019-06-15T11:59:37.037Z,6408.00
2019-06-15T12:00:37.002Z,7496.00
2019-06-15T12:01:37.043Z,6828.00
2019-06-15T12:02:37.015Z,6360.00
2019-06-15T12:03:37.036Z,5432.00
2019-06-15T12:04:37.081Z,7428.00
2019-06-15T12:05:37.069Z,6740.00
2019-06-15T12:06:37.244Z,6892.00
2019-06-15T12:07:37.147Z,7380.00
2019-06-15T12:08:37.123Z,5564.00
2019-06-15T12:09:37.147Z,7420.00
2019-06-15T12:10:37.152Z,7504.00
2019-06-15T12:11:37.198Z,8188.00
2019-06-15T12:12:37.190Z,6892.00
2019-06-15T12:13:37.258Z,5564.00
2019-06-15T12:14:37.243Z,6328.00
2019-06-15T12:15:38.489Z,5504.00
2019-06-15T12:16:37.267Z,5776.00
2019-06-15T12:17:37.282Z,5240.00
2019-06-15T12:18:37.321Z,7488.00
2019-06-15T12:19:37.316Z,3908.00
2019-06-15T12:20:39.041Z,4744.00
2019-06-15T12:21:37.458Z,6960.00
2019-06-15T12:22:37.425Z,8704.00
2019-06-15T12:23:37.458Z,7644.00
2019-06-15T12:24:37.413Z,4568.00
2019-06-15T12:25:37.451Z,4880.00
2019-06-15T12:26:37.453Z,5332.00
2019-06-15T12:27:37.493Z,8616.00
2019-06-15T12:28:37.516Z,6284.00
2019-06-15T12:29:37.534Z,5124.00
2019-06-15T12:30:46.867Z,5360.00
2019-06-15T12:31:37.627Z,8612.00
2019-06-15T12:32:37.556Z,9844.00
2019-06-15T12:33:37.562Z,9692.00
2019-06-15T12:34:37.590Z,5884.00
2019-06-15T12:35:37.635Z,5596.00
2019-06-15T12:36:37.656Z,9232.00
2019-06-15T12:37:37.634Z,3088.00
2019-06-15T12:38:37.675Z,2944.00
2019-06-15T12:39:41.583Z,3608.00
2019-06-15T12:40:37.693Z,5332.00
2019-06-15T12:41:37.708Z,4516.00
2019-06-15T12:42:37.724Z,6680.00
2019-06-15T12:43:37.760Z,4456.00
2019-06-15T12:44:37.812Z,3148.00
2019-06-15T12:45:37.798Z,3204.00
2019-06-15T12:46:37.802Z,3568.00
2019-06-15T12:47:37.819Z,5008.00
2019-06-15T12:48:37.831Z,5912.00